createdAt,value
2022-12-20T00:01:32.714Z,101162.06
2022-12-20T00:04:02.589Z,101174.44
2022-12-20T00:06:29.917Z,101150.00
2022-12-20T00:08:59.224Z,101163.50
2022-12-20T00:11:27.759Z,101149.88
2022-12-20T00:13:54.877Z,101137.25
2022-12-20T00:16:24.835Z,101150.25
2022-12-20T00:18:54.090Z,101152.03
2022-12-20T00:21:21.464Z,101147.44
2022-12-20T00:23:48.492Z,101139.03
2022-12-20T00:26:20.742Z,101141.56
2022-12-20T00:28:48.080Z,101142.59
2022-12-20T00:31:17.312Z,101128.72
2022-12-20T00:33:50.353Z,101147.94
2022-12-20T00:36:18.791Z,101153.44
2022-12-20T00:38:48.626Z,101141.59
2022-12-20T00:41:21.572Z,101122.25
2022-12-20T00:43:48.973Z,101135.84
2022-12-20T00:46:17.985Z,101126.81
2022-12-20T00:48:45.762Z,101033.22
2022-12-20T00:51:19.548Z,101106.97
2022-12-20T00:53:47.236Z,101115.59
2022-12-20T00:56:14.952Z,101089.91
2022-12-20T00:58:43.894Z,101078.44
2022-12-20T01:01:25.894Z,101081.22
2022-12-20T01:03:53.743Z,101073.72
2022-12-20T01:06:21.830Z,101079.44
2022-12-20T01:08:48.875Z,101092.94
2022-12-20T01:11:19.424Z,101086.84
2022-12-20T01:13:48.945Z,101080.72
2022-12-20T01:16:19.844Z,101093.69
2022-12-20T01:18:47.807Z,101109.75
2022-12-20T01:21:16.807Z,101105.69
2022-12-20T01:23:43.897Z,101109.00
2022-12-20T01:26:14.127Z,101094.22
2022-12-20T01:28:43.231Z,101103.38
2022-12-20T01:31:13.113Z,101089.88
2022-12-20T01:33:40.218Z,101012.13
2022-12-20T01:36:11.349Z,101075.63
2022-12-20T01:38:38.633Z,101067.88
2022-12-20T01:41:05.955Z,101094.84
2022-12-20T01:43:54.172Z,101083.00
2022-12-20T01:46:24.330Z,101060.34
2022-12-20T01:49:01.190Z,101069.91
2022-12-20T01:51:32.265Z,101059.47
2022-12-20T01:54:09.638Z,101068.75
2022-12-20T01:56:40.581Z,101052.84
2022-12-20T01:59:08.679Z,101061.88
2022-12-20T02:01:36.169Z,101071.41
2022-12-20T02:04:03.809Z,101037.69
2022-12-20T02:06:30.864Z,101058.06
2022-12-20T02:09:03.940Z,101045.94
2022-12-20T02:12:02.457Z,101050.94
2022-12-20T02:14:43.114Z,101047.72
2022-12-20T02:17:16.480Z,101023.66
2022-12-20T02:20:21.901Z,101041.50
2022-12-20T02:23:00.632Z,101030.56
2022-12-20T02:25:43.848Z,101028.28
2022-12-20T02:28:47.305Z,101023.53
2022-12-20T02:31:19.197Z,101037.66
2022-12-20T02:33:48.954Z,101010.03
2022-12-20T02:36:19.016Z,101003.13
2022-12-20T02:38:49.541Z,101019.56
2022-12-20T02:41:36.940Z,101023.53
2022-12-20T02:44:31.140Z,101009.25
2022-12-20T02:47:02.951Z,100951.81
2022-12-20T02:49:34.580Z,101006.56
2022-12-20T02:52:03.015Z,100993.06
2022-12-20T02:54:30.356Z,100994.22
2022-12-20T02:57:43.219Z,101005.31
2022-12-20T03:00:16.712Z,100998.81
2022-12-20T03:03:04.654Z,100989.00
2022-12-20T03:05:35.159Z,100990.25
2022-12-20T03:08:02.439Z,100984.91
2022-12-20T03:10:30.099Z,100969.13
2022-12-20T03:12:57.100Z,100983.50
2022-12-20T03:15:24.377Z,100986.16
2022-12-20T03:17:54.478Z,100973.69
2022-12-20T03:20:22.691Z,100944.72
2022-12-20T03:22:49.656Z,100953.13
2022-12-20T03:25:17.442Z,100881.22
2022-12-20T03:27:44.540Z,100962.28
2022-12-20T03:30:12.632Z,100961.53
2022-12-20T03:32:39.899Z,100953.91
2022-12-20T03:35:09.019Z,100944.38
2022-12-20T03:37:38.738Z,100943.47
2022-12-20T03:40:07.695Z,100941.72
2022-12-20T03:42:35.087Z,100926.81
2022-12-20T03:45:02.835Z,100920.44
2022-12-20T03:47:31.955Z,100918.78
2022-12-20T03:49:58.961Z,100923.88
2022-12-20T03:52:27.417Z,100907.34
2022-12-20T03:54:54.459Z,100895.09
2022-12-20T03:57:27.114Z,100906.91
2022-12-20T03:59:55.163Z,100890.59
2022-12-20T04:02:23.091Z,100892.06
2022-12-20T04:04:51.131Z,100901.63
2022-12-20T04:07:18.338Z,100905.94
2022-12-20T04:09:47.265Z,100901.00
2022-12-20T04:12:15.903Z,100896.31
2022-12-20T04:14:43.683Z,100896.94
2022-12-20T04:17:12.269Z,100874.16
2022-12-20T04:19:39.937Z,100892.38
2022-12-20T04:22:08.437Z,100869.75
2022-12-20T04:24:47.079Z,100878.13
2022-12-20T04:27:25.948Z,100887.66
2022-12-20T04:29:55.259Z,100886.53
2022-12-20T04:32:23.323Z,100878.63
2022-12-20T04:34:50.291Z,100864.72
2022-12-20T04:37:17.802Z,100881.25
2022-12-20T04:39:49.682Z,100880.13
2022-12-20T04:42:34.560Z,100871.22
2022-12-20T04:45:01.594Z,100881.50
2022-12-20T04:47:31.332Z,100854.13
2022-12-20T04:49:58.491Z,100864.41
2022-12-20T04:52:47.901Z,100878.41
2022-12-20T04:55:16.292Z,100881.59
2022-12-20T04:57:43.340Z,100871.56
2022-12-20T05:00:12.026Z,100859.09
2022-12-20T05:02:43.497Z,100860.09
2022-12-20T05:05:14.304Z,100862.50
2022-12-20T05:07:47.876Z,100837.47
2022-12-20T05:10:14.865Z,100852.19
2022-12-20T05:12:42.543Z,100853.56
2022-12-20T05:15:14.881Z,100835.91
2022-12-20T05:17:43.284Z,100848.38
2022-12-20T05:20:12.369Z,100822.16
2022-12-20T05:22:58.542Z,100833.28
2022-12-20T05:25:44.093Z,100842.78
2022-12-20T05:28:14.372Z,100840.00
2022-12-20T05:30:41.364Z,100808.47
2022-12-20T05:33:08.340Z,100822.22
2022-12-20T05:35:35.331Z,100834.41
2022-12-20T05:38:10.371Z,100808.13
2022-12-20T05:40:39.912Z,100775.31
2022-12-20T05:43:07.537Z,100818.47
2022-12-20T05:45:52.983Z,100814.53
2022-12-20T05:48:29.327Z,100814.41
2022-12-20T05:50:56.644Z,100806.03
2022-12-20T05:53:26.838Z,100805.38
2022-12-20T05:55:57.682Z,100781.66
2022-12-20T05:58:37.660Z,100790.41
2022-12-20T06:01:08.073Z,100804.16
2022-12-20T06:03:39.533Z,100810.41
2022-12-20T06:06:15.731Z,100786.38
2022-12-20T06:08:46.161Z,100776.13
2022-12-20T06:11:25.768Z,100793.53
2022-12-20T06:14:01.381Z,100797.09
2022-12-20T06:16:28.880Z,100788.88
2022-12-20T06:18:57.440Z,100794.94
2022-12-20T06:21:24.643Z,100795.97
2022-12-20T06:23:53.511Z,100788.34
2022-12-20T06:26:23.453Z,100783.56
2022-12-20T06:28:54.825Z,100782.91
2022-12-20T06:31:26.094Z,100757.63
2022-12-20T06:33:54.831Z,100752.69
2022-12-20T06:36:23.926Z,100759.81
2022-12-20T06:38:52.210Z,100763.47
2022-12-20T06:41:19.600Z,100721.81
2022-12-20T06:43:47.375Z,100755.50
2022-12-20T06:46:14.714Z,100752.44
2022-12-20T06:48:42.147Z,100773.03
2022-12-20T06:51:11.295Z,100757.53
2022-12-20T06:53:38.655Z,100751.19
2022-12-20T06:56:06.056Z,100757.69
2022-12-20T06:58:33.111Z,100738.50
2022-12-20T07:01:00.894Z,100718.06
2022-12-20T07:03:28.062Z,100724.03
2022-12-20T07:05:55.612Z,100728.13
2022-12-20T07:08:23.267Z,100716.78
2022-12-20T07:10:52.806Z,100693.69
2022-12-20T07:13:20.298Z,100702.44
2022-12-20T07:15:47.297Z,100686.31
2022-12-20T07:18:14.610Z,100689.84
2022-12-20T07:20:41.691Z,100688.09
2022-12-20T07:23:08.670Z,100684.78
2022-12-20T07:25:35.740Z,100679.94
2022-12-20T07:28:03.298Z,100667.00
2022-12-20T07:30:31.402Z,100646.94
2022-12-20T07:32:59.384Z,100638.53
2022-12-20T07:35:26.831Z,100638.28
2022-12-20T07:37:53.795Z,100628.63
2022-12-20T07:40:20.895Z,100630.13
2022-12-20T07:42:49.086Z,100623.88
2022-12-20T07:45:16.507Z,100600.28
2022-12-20T07:47:44.076Z,100607.22
2022-12-20T07:50:11.975Z,100600.59
2022-12-20T07:52:43.100Z,100583.63
2022-12-20T07:55:12.211Z,100594.63
2022-12-20T07:57:51.711Z,100596.91
2022-12-20T08:00:19.161Z,100584.19
2022-12-20T08:02:57.966Z,100571.59
2022-12-20T08:05:26.186Z,100585.66
2022-12-20T08:07:59.394Z,100577.16
2022-12-20T08:10:27.925Z,100538.25
2022-12-20T08:12:55.585Z,100570.03
2022-12-20T08:15:23.287Z,100508.41
2022-12-20T08:17:50.610Z,100570.88
2022-12-20T08:20:18.210Z,100567.56
2022-12-20T08:22:45.358Z,100545.91
2022-12-20T08:25:12.625Z,100540.94
2022-12-20T08:27:39.980Z,100491.91
2022-12-20T08:30:08.569Z,100557.84
2022-12-20T08:32:36.454Z,100553.09
2022-12-20T08:35:04.954Z,100542.88
2022-12-20T08:37:32.021Z,100554.53
2022-12-20T08:39:59.127Z,100536.56
2022-12-20T08:42:26.093Z,100514.88
2022-12-20T08:44:53.126Z,100543.50
2022-12-20T08:47:20.079Z,100526.97
2022-12-20T08:49:48.013Z,100546.75
2022-12-20T08:52:15.676Z,100508.69
2022-12-20T08:54:42.689Z,100534.53
2022-12-20T08:57:09.675Z,100521.59
2022-12-20T08:59:36.643Z,100529.84
2022-12-20T09:02:03.855Z,100515.38
2022-12-20T09:04:31.098Z,100513.97
2022-12-20T09:06:58.054Z,100508.00
2022-12-20T09:09:25.029Z,100489.31
2022-12-20T09:11:52.069Z,100494.34
2022-12-20T09:14:19.240Z,100464.97
2022-12-20T09:16:46.191Z,100477.25
2022-12-20T09:19:14.757Z,100469.69
2022-12-20T09:21:41.951Z,100444.03
2022-12-20T09:24:10.260Z,100444.66
2022-12-20T09:26:37.423Z,100455.84
2022-12-20T09:29:05.476Z,100431.72
2022-12-20T09:31:32.600Z,100443.53
2022-12-20T09:33:59.849Z,100438.19
2022-12-20T09:36:29.730Z,100426.47
2022-12-20T09:38:57.662Z,100398.47
2022-12-20T09:41:33.675Z,100437.06
2022-12-20T09:44:11.076Z,100403.09
2022-12-20T09:46:40.132Z,100398.38
2022-12-20T09:49:07.419Z,100413.75
2022-12-20T09:51:49.560Z,100337.56
2022-12-20T09:54:19.283Z,100401.94
2022-12-20T09:57:22.700Z,100402.63
2022-12-20T09:59:50.228Z,100402.63
2022-12-20T10:05:26.061Z,100366.63
2022-12-20T10:07:58.545Z,100362.84
2022-12-20T10:10:25.672Z,100372.41
2022-12-20T10:13:15.686Z,100286.94
2022-12-20T10:15:58.730Z,100355.56
2022-12-20T10:18:39.467Z,100350.41
2022-12-20T10:21:15.207Z,100345.53
2022-12-20T10:24:30.564Z,100325.81
2022-12-20T10:27:12.791Z,100331.16
2022-12-20T10:29:41.060Z,100316.00
2022-12-20T10:32:21.207Z,100315.47
2022-12-20T10:35:00.133Z,100308.72
2022-12-20T10:37:27.415Z,100300.78
2022-12-20T10:39:54.473Z,100303.63
2022-12-20T10:42:40.811Z,100296.31
2022-12-20T10:45:35.673Z,100303.00
2022-12-20T10:48:07.055Z,100300.69
2022-12-20T10:50:34.466Z,100296.28
2022-12-20T10:53:13.559Z,100255.81
2022-12-20T10:55:42.549Z,100279.72
2022-12-20T10:58:21.885Z,100279.44
2022-12-20T11:00:49.888Z,100273.31
2022-12-20T11:03:22.605Z,100267.16
2022-12-20T11:06:17.195Z,100275.56
2022-12-20T11:08:52.523Z,100270.16
2022-12-20T11:11:25.232Z,100264.38
2022-12-20T11:13:52.870Z,100270.69
2022-12-20T11:16:36.993Z,100255.44
2022-12-20T11:19:07.004Z,100275.69
2022-12-20T11:22:08.059Z,100276.78
2022-12-20T11:24:59.935Z,100278.91
2022-12-20T11:28:05.329Z,100275.91
2022-12-20T11:31:01.914Z,100264.09
2022-12-20T11:33:47.470Z,100266.94
2022-12-20T11:36:33.204Z,100267.84
2022-12-20T11:39:19.734Z,100251.69
2022-12-20T11:41:59.428Z,100269.16
2022-12-20T11:44:53.977Z,100265.03
2022-12-20T11:47:59.305Z,100262.84
2022-12-20T11:51:08.655Z,100237.19
2022-12-20T11:54:08.577Z,100255.00
2022-12-20T11:56:44.527Z,100215.94
2022-12-20T11:59:42.884Z,100253.56
2022-12-20T12:02:14.808Z,100243.88
2022-12-20T12:04:47.504Z,100251.81
2022-12-20T12:07:21.808Z,100247.16
2022-12-20T12:09:57.941Z,100250.31
2022-12-20T12:12:34.218Z,100245.44
2022-12-20T12:15:17.341Z,100238.34
2022-12-20T12:18:05.573Z,100228.84
2022-12-20T12:20:45.147Z,100224.38
2022-12-20T12:23:35.556Z,100224.00
2022-12-20T12:26:40.477Z,100245.78
2022-12-20T12:29:12.723Z,100251.03
2022-12-20T12:31:43.891Z,100248.81
2022-12-20T12:34:52.143Z,100247.78
2022-12-20T12:37:43.237Z,100242.47
2022-12-20T12:40:19.350Z,100249.31
2022-12-20T12:43:01.257Z,100244.34
2022-12-20T12:45:31.743Z,100236.94
2022-12-20T12:48:12.657Z,100238.75
2022-12-20T12:50:46.158Z,100252.16
2022-12-20T12:53:15.189Z,100243.28
2022-12-20T12:55:48.599Z,100205.91
2022-12-20T12:58:36.072Z,100243.06
2022-12-20T13:01:12.912Z,100230.69
2022-12-20T13:03:51.967Z,100243.94
2022-12-20T13:06:35.685Z,100245.47
2022-12-20T13:09:03.703Z,100242.78
2022-12-20T13:11:36.111Z,100248.72
2022-12-20T13:14:18.406Z,100244.31
2022-12-20T13:17:11.570Z,100239.75
2022-12-20T13:19:36.331Z,100240.19
2022-12-20T13:22:06.271Z,100244.47
2022-12-20T13:24:50.901Z,100250.44
2022-12-20T13:27:27.288Z,100242.06
2022-12-20T13:29:56.663Z,100236.78
2022-12-20T13:32:48.649Z,100241.56
2022-12-20T13:35:24.615Z,100245.16
2022-12-20T13:38:12.707Z,100239.19
2022-12-20T13:40:52.769Z,100228.84
2022-12-20T13:43:19.700Z,100244.28
2022-12-20T13:45:50.999Z,100238.97
2022-12-20T13:48:24.057Z,100226.97
2022-12-20T13:50:56.210Z,100235.28
2022-12-20T13:53:27.307Z,100241.50
2022-12-20T13:55:55.567Z,100236.72
2022-12-20T13:58:26.991Z,100247.97
2022-12-20T14:01:00.958Z,100250.88
2022-12-20T14:03:30.998Z,100239.75
2022-12-20T14:06:02.839Z,100225.94
2022-12-20T14:08:36.638Z,100240.97
2022-12-20T14:11:12.547Z,100221.41
2022-12-20T14:13:40.343Z,100232.38
2022-12-20T14:16:14.897Z,100222.50
2022-12-20T14:18:42.620Z,100227.06
2022-12-20T14:21:10.610Z,100229.06
2022-12-20T14:23:47.980Z,100237.28
2022-12-20T14:26:22.451Z,100206.53
2022-12-20T14:28:55.525Z,100222.22
2022-12-20T14:31:37.436Z,100231.75
2022-12-20T14:34:16.488Z,100214.69
2022-12-20T14:36:46.166Z,100233.91
2022-12-20T14:39:26.531Z,100227.31
2022-12-20T14:42:01.797Z,100223.78
2022-12-20T14:44:32.516Z,100221.25
2022-12-20T14:47:28.636Z,100234.69
2022-12-20T14:49:59.207Z,100233.19
2022-12-20T14:52:29.202Z,100236.44
2022-12-20T14:55:11.932Z,100230.41
2022-12-20T14:57:46.430Z,100218.38
2022-12-20T15:00:19.579Z,100217.09
2022-12-20T15:03:01.928Z,100223.44
2022-12-20T15:05:35.422Z,100201.66
2022-12-20T15:08:22.706Z,100223.06
2022-12-20T15:10:57.584Z,100201.44
2022-12-20T15:13:37.219Z,100222.94
2022-12-20T15:16:20.013Z,100227.88
2022-12-20T15:18:48.984Z,100250.94
2022-12-20T15:21:38.601Z,100229.44
2022-12-20T15:24:10.354Z,100238.03
2022-12-20T15:26:37.868Z,100241.97
2022-12-20T15:29:05.715Z,100239.28
2022-12-20T15:31:36.770Z,100249.81
2022-12-20T15:34:12.103Z,100223.09
2022-12-20T15:36:39.149Z,100237.66
2022-12-20T15:39:14.132Z,100214.88
2022-12-20T15:41:46.444Z,100235.63
2022-12-20T15:44:17.420Z,100237.91
2022-12-20T15:46:44.876Z,100236.03
2022-12-20T15:49:17.157Z,100069.50
2022-12-20T15:51:46.844Z,100232.19
2022-12-20T15:54:35.887Z,100230.03
2022-12-20T15:57:09.437Z,100225.34
2022-12-20T16:02:26.713Z,100221.19
2022-12-20T16:04:55.432Z,100218.53
2022-12-20T16:07:23.704Z,100200.63
2022-12-20T16:09:50.908Z,100221.31
2022-12-20T16:12:32.543Z,100222.19
2022-12-20T16:14:59.618Z,100196.97
2022-12-20T16:17:26.671Z,100203.69
2022-12-20T16:19:53.717Z,100225.31
2022-12-20T16:22:22.880Z,100226.81
2022-12-20T16:24:50.275Z,100142.19
2022-12-20T16:27:17.709Z,100214.03
2022-12-20T16:29:45.650Z,100210.25
2022-12-20T16:32:18.492Z,100137.13
2022-12-20T16:34:46.334Z,100202.88
2022-12-20T16:37:13.443Z,100216.44
2022-12-20T16:39:41.155Z,100215.31
2022-12-20T16:42:16.164Z,100217.22
2022-12-20T16:44:45.507Z,100191.38
2022-12-20T16:47:13.961Z,100198.59
2022-12-20T16:49:47.348Z,100223.41
2022-12-20T16:52:19.252Z,100223.03
2022-12-20T16:54:46.327Z,100208.84
2022-12-20T16:57:13.278Z,100228.97
2022-12-20T16:59:40.236Z,100229.72
2022-12-20T17:02:29.819Z,100222.38
2022-12-20T17:04:57.008Z,100226.31
2022-12-20T17:07:24.376Z,100229.56
2022-12-20T17:09:52.117Z,100225.44
2022-12-20T17:12:21.355Z,100211.47
2022-12-20T17:14:49.428Z,100223.09
2022-12-20T17:17:17.594Z,100212.84
2022-12-20T17:19:44.993Z,100236.25
2022-12-20T17:22:25.073Z,100220.44
2022-12-20T17:24:52.150Z,100223.34
2022-12-20T17:27:19.168Z,100228.78
2022-12-20T17:29:46.209Z,100223.50
2022-12-20T17:32:25.881Z,100224.16
2022-12-20T17:34:53.790Z,100161.47
2022-12-20T17:37:21.663Z,100220.97
2022-12-20T17:39:49.048Z,100197.31
2022-12-20T17:42:17.178Z,100214.38
2022-12-20T17:44:46.382Z,100212.34
2022-12-20T17:47:13.724Z,100210.84
2022-12-20T17:49:40.832Z,100184.38
2022-12-20T17:52:15.647Z,100184.03
2022-12-20T17:54:43.024Z,100207.19
2022-12-20T17:57:16.390Z,100214.13
2022-12-20T17:59:43.949Z,100226.22
2022-12-20T18:02:21.545Z,100232.94
2022-12-20T18:04:49.018Z,100226.34
2022-12-20T18:07:16.198Z,100222.16
2022-12-20T18:09:43.172Z,100225.81
2022-12-20T18:12:11.045Z,100227.88
2022-12-20T18:14:38.129Z,100218.53
2022-12-20T18:17:05.271Z,100216.47
2022-12-20T18:19:32.411Z,100200.78
2022-12-20T18:22:00.221Z,100215.25
2022-12-20T18:24:27.633Z,100211.34
2022-12-20T18:26:54.720Z,100221.94
2022-12-20T18:29:21.701Z,100219.63
2022-12-20T18:31:48.726Z,100212.19
2022-12-20T18:34:15.722Z,100215.59
2022-12-20T18:36:42.780Z,100215.47
2022-12-20T18:39:13.082Z,100220.28
2022-12-20T18:41:43.074Z,100203.69
2022-12-20T18:44:11.823Z,100215.22
2022-12-20T18:46:39.305Z,100188.66
2022-12-20T18:49:06.565Z,100211.28
2022-12-20T18:51:38.407Z,100205.75
2022-12-20T18:54:08.036Z,100188.97
2022-12-20T18:56:37.406Z,100207.78
2022-12-20T18:59:11.485Z,100205.25
2022-12-20T19:01:40.560Z,100207.03
2022-12-20T19:04:08.488Z,100174.97
2022-12-20T19:06:36.960Z,100175.59
2022-12-20T19:09:06.981Z,100209.47
2022-12-20T19:11:34.419Z,100210.00
2022-12-20T19:14:01.423Z,100201.41
2022-12-20T19:16:32.120Z,100215.06
2022-12-20T19:19:01.100Z,100215.81
2022-12-20T19:21:33.740Z,100215.81
2022-12-20T19:24:05.207Z,100218.84
2022-12-20T19:26:32.816Z,100215.50
2022-12-20T19:29:00.196Z,100215.78
2022-12-20T19:31:29.975Z,100181.09
2022-12-20T19:34:00.161Z,100224.38
2022-12-20T19:36:32.634Z,100221.44
2022-12-20T19:39:01.516Z,100225.00
2022-12-20T19:41:31.075Z,100217.81
2022-12-20T19:43:58.569Z,100201.88
2022-12-20T19:46:29.436Z,100219.72
2022-12-20T19:48:58.605Z,100224.63
2022-12-20T19:51:27.600Z,100226.16
2022-12-20T19:53:56.010Z,100217.81
2022-12-20T19:56:26.444Z,100224.78
2022-12-20T19:58:55.372Z,100187.56
2022-12-20T20:01:26.037Z,100220.34
2022-12-20T20:03:55.551Z,100160.69
2022-12-20T20:06:23.361Z,100209.56
2022-12-20T20:08:50.561Z,100204.25
2022-12-20T20:11:19.235Z,100180.53
2022-12-20T20:13:46.725Z,100198.59
2022-12-20T20:16:20.019Z,100232.66
2022-12-20T20:18:49.357Z,100211.31
2022-12-20T20:21:21.370Z,100213.59
2022-12-20T20:23:50.684Z,100220.19
2022-12-20T20:26:20.888Z,100223.94
2022-12-20T20:28:48.070Z,100215.25
2022-12-20T20:31:17.288Z,100223.09
2022-12-20T20:33:44.592Z,100226.88
2022-12-20T20:36:17.443Z,100227.97
2022-12-20T20:38:44.648Z,100240.59
2022-12-20T20:41:12.109Z,100243.84
2022-12-20T20:43:39.075Z,100218.13
2022-12-20T20:46:07.856Z,100240.72
2022-12-20T20:48:35.530Z,100239.50
2022-12-20T20:51:02.660Z,100237.97
2022-12-20T20:53:33.924Z,100232.19
2022-12-20T20:56:02.966Z,100229.88
2022-12-20T20:58:31.034Z,100238.41
2022-12-20T21:01:00.784Z,100233.47
2022-12-20T21:03:28.898Z,100247.25
2022-12-20T21:08:43.816Z,100254.13
2022-12-20T21:11:12.212Z,100256.69
2022-12-20T21:13:39.453Z,100233.03
2022-12-20T21:16:11.898Z,100251.03
2022-12-20T21:18:39.175Z,100255.69
2022-12-20T21:21:11.219Z,100255.94
2022-12-20T21:23:39.360Z,100236.00
2022-12-20T21:26:07.761Z,100252.19
2022-12-20T21:28:35.805Z,100251.44
2022-12-20T21:31:05.688Z,100248.53
2022-12-20T21:33:33.037Z,100245.16
2022-12-20T21:36:06.191Z,100244.78
2022-12-20T21:38:33.888Z,100244.66
2022-12-20T21:41:05.310Z,100251.50
2022-12-20T21:43:32.764Z,100243.63
2022-12-20T21:46:00.449Z,100237.44
2022-12-20T21:48:27.827Z,100240.25
2022-12-20T21:51:03.364Z,100212.16
2022-12-20T21:53:31.637Z,100227.34
2022-12-20T21:56:00.356Z,100241.91
2022-12-20T21:58:29.308Z,100237.72
2022-12-20T22:00:57.488Z,100257.72
2022-12-20T22:03:25.742Z,100240.78
2022-12-20T22:05:55.051Z,100249.16
2022-12-20T22:08:23.039Z,100236.00
2022-12-20T22:11:01.912Z,100236.63
2022-12-20T22:13:33.108Z,100230.41
2022-12-20T22:16:13.143Z,100236.88
2022-12-20T22:18:40.863Z,100237.75
2022-12-20T22:21:10.938Z,100234.47
2022-12-20T22:23:38.215Z,100229.41
2022-12-20T22:26:08.601Z,100216.88
2022-12-20T22:28:36.490Z,100235.59
2022-12-20T22:31:11.188Z,100218.66
2022-12-20T22:33:38.332Z,100217.00
2022-12-20T22:36:06.597Z,100227.38
2022-12-20T22:38:34.155Z,100216.72
2022-12-20T22:41:26.619Z,100223.94
2022-12-20T22:43:54.452Z,100217.50
2022-12-20T22:46:22.042Z,100225.00
2022-12-20T22:48:49.397Z,100225.22
2022-12-20T22:51:20.167Z,100222.22
2022-12-20T22:53:49.272Z,100212.97
2022-12-20T22:56:17.861Z,100220.03
2022-12-20T22:58:45.325Z,100221.19
2022-12-20T23:01:14.054Z,100227.16
2022-12-20T23:03:41.781Z,100226.50
2022-12-20T23:06:12.502Z,100225.63
2022-12-20T23:08:40.027Z,100213.97
2022-12-20T23:11:39.936Z,100212.72
2022-12-20T23:14:30.572Z,100122.75
2022-12-20T23:16:58.029Z,100202.59
2022-12-20T23:19:25.162Z,100205.63
2022-12-20T23:22:10.936Z,100196.78
2022-12-20T23:24:37.970Z,100195.09
2022-12-20T23:27:04.940Z,100161.56
2022-12-20T23:29:32.025Z,100170.94
2022-12-20T23:31:59.266Z,100163.47
2022-12-20T23:34:26.333Z,100187.13
2022-12-20T23:36:53.528Z,100176.63
2022-12-20T23:39:20.617Z,100197.09
2022-12-20T23:41:47.616Z,100184.56
2022-12-20T23:44:14.617Z,100184.66
2022-12-20T23:46:41.599Z,100196.34
2022-12-20T23:49:09.060Z,100179.88
2022-12-20T23:51:36.054Z,100203.66
2022-12-20T23:54:03.152Z,100173.91
2022-12-20T23:56:30.156Z,100194.78
2022-12-20T23:58:57.891Z,100201.78
